Skip Navigation Links
NOAA logo - Click to go to the NOAA homepage
NOAA's National Weather Service
Alaska Aviation Weather Unit
  NWS logo - Click to go to the NWS homepage
Left Navbar Graphic     17 AKDT = 01 GMT

   
NOAA is celebrating 200 years of science, service, and stewardship. Visit the NOAA 200th celebration Web site to learn more.
USA.gov is the U.S. Government's official Web portal to all Federal, state and local government Web resources and services.
Facebook
NWS on Facebook

Important Change Regarding the AAWU Web Presence

 

Over the last several months, the AAWU has been working to navigate its webpages to a nationally supported server. Security, as well as other needs, have necessitated the change.  In the process, we have made an effort to enhance the functionality of our website, as well as some of our products. As of June 27, 2017, aawu.arh.noaa.gov will be discontinued. The new AAWU web address is weather.gov/aawu. It is now live and will run in-parallel with the old site until it is discontinued. Please send any feedback or questions regarding the new webpages to nws.ar.aawu.webauthors@noaa.gov.  Thank you for your patience during this time of transition.
AAWU Home :: Display TAF Add Bookmark
SPECI PAVA 251951Z AUTO 14017KT 10SM SCT023 OVC031 12/07 A2989 RMK
 AO2=

METAR PAVA 251956Z AUTO 13014KT 10SM BKN023 OVC031 12/07 A2989 RMK
 AO2 SLP206 T01170067=

METAR PAVA 252056Z AUTO 14014KT 10SM BKN023 OVC028 12/07 A2988 RMK
 AO2 SLP203 T01170067 56012=

METAR PAVA 252156Z AUTO 15016G22KT 10SM OVC022 11/07 A2987 RMK AO2
 SLP198 T01110067=

METAR PAVA 252256Z AUTO 15018G21KT 10SM BKN024 BKN030 OVC035 12/07
 A2985 RMK AO2 SLP192 T01170067=

SPECI PAVA 252313Z AUTO 15016KT 10SM FEW024 OVC033 12/07 A2984 RMK
 AO2=

SPECI PAVA 252346Z AUTO 14018G21KT 10SM BKN026 OVC033 12/07 A2984
 RMK AO2=

METAR PAVA 252356Z AUTO 14015KT 10SM BKN026 OVC033 12/07 A2983 RMK
 AO2 SLP187 T01220067 10122 20100 58016=

METAR PAVA 260056Z AUTO 14017G23KT 10SM BKN030 OVC036 12/06 A2981
 RMK AO2 SLP179 T01220061=

SPECI PAVA 260107Z AUTO 14019G22KT 10SM OVC028 12/07 A2981 RMK AO2=


NOAA's National Weather Service
Alaska Aviation Weather Unit
6930 Sand Lake Road
Anchorage, AK 99502-1845
Disclaimer
Credits
Glossary
Privacy Policy
About Us
Career Opportunities
Contact AAWU Internet Services Site last modified: April, 17th 2012